Time;durP1;ratioP1;P1;durP2;ratioP2;P2;SDS_P1;SDS_P2;PMS_P1;PMS_P2;Temp;Humidity;BMP_temperature;BMP_pressure;BME280_temperature;BME280_humidity;BME280_pressure;Samples;Min_cycle;Max_cycle;Signal;HPM_P1;HPM_P2
2022/12/01 00:01:11;;;;;;;81.47;53.60;;;5.60;99.90;;;;;;4880008;28;94061;-34
2022/12/01 00:03:37;;;;;;;85.93;51.13;;;5.60;99.90;;;;;;4880027;28;96378;-31
2022/12/01 00:06:15;;;;;;;95.47;51.13;;;5.60;99.90;;;;;;4879168;28;94412;-32
2022/12/01 00:10:24;;;;;;;81.22;50.75;;;5.60;99.90;;;;;;4879593;28;93569;-32
2022/12/01 00:11:26;;;;;;;82.03;51.95;;;5.50;99.90;;;;;;4879719;28;94164;-34
2022/12/01 00:13:52;;;;;;;91.63;54.22;;;5.60;99.90;;;;;;4879043;28;95007;-31
2022/12/01 00:16:18;;;;;;;94.35;52.72;;;5.50;99.90;;;;;;4879796;28;94762;-34
2022/12/01 00:18:43;;;;;;;83.72;52.38;;;5.50;99.90;;;;;;4878828;28;94454;-33
2022/12/01 00:21:17;;;;;;;87.32;54.75;;;5.50;99.90;;;;;;4878789;28;92587;-32
2022/12/01 00:23:48;;;;;;;81.40;49.65;;;5.50;99.90;;;;;;4878432;28;95620;-32
2022/12/01 00:26:15;;;;;;;84.78;53.42;;;5.50;99.90;;;;;;4879557;28;95883;-32
2022/12/01 00:28:41;;;;;;;96.22;54.80;;;5.50;99.90;;;;;;4879084;28;94288;-34
2022/12/01 00:31:08;;;;;;;83.10;51.67;;;5.50;99.90;;;;;;4879725;28;93459;-33
2022/12/01 00:33:33;;;;;;;90.15;54.15;;;5.60;99.90;;;;;;4878625;28;95051;-33
2022/12/01 00:36:00;;;;;;;101.53;57.33;;;5.60;99.90;;;;;;4878910;28;94550;-34
2022/12/01 00:38:26;;;;;;;87.60;56.25;;;5.60;99.90;;;;;;4878802;28;94621;-33
2022/12/01 00:40:52;;;;;;;105.93;59.30;;;5.60;99.90;;;;;;4880088;28;91925;-32
2022/12/01 00:43:17;;;;;;;97.15;57.78;;;5.60;99.90;;;;;;4878058;28;94978;-34
2022/12/01 00:45:43;;;;;;;97.13;56.05;;;5.60;99.90;;;;;;4878882;28;94220;-33
2022/12/01 00:48:09;;;;;;;98.35;56.58;;;5.60;99.90;;;;;;4878307;28;93149;-30
2022/12/01 00:50:34;;;;;;;122.03;60.20;;;5.60;99.90;;;;;;4879391;28;95018;-31
2022/12/01 00:53:00;;;;;;;100.32;59.50;;;5.60;99.90;;;;;;4878822;28;94482;-33
2022/12/01 00:55:25;;;;;;;112.57;62.38;;;5.60;99.90;;;;;;4878027;28;94671;-32
2022/12/01 00:57:51;;;;;;;116.57;60.80;;;5.50;99.90;;;;;;4879405;28;93324;-32
2022/12/01 01:00:17;;;;;;;101.50;57.22;;;5.60;99.90;;;;;;4879035;28;93945;-32
2022/12/01 01:02:42;;;;;;;114.90;61.60;;;5.60;99.90;;;;;;4878363;28;95956;-32
2022/12/01 01:05:08;;;;;;;102.80;57.53;;;5.60;99.90;;;;;;4879464;28;94560;-31
2022/12/01 01:07:34;;;;;;;105.70;61.20;;;5.60;99.90;;;;;;4879876;28;94943;-34
2022/12/01 01:09:59;;;;;;;108.70;60.20;;;5.60;99.90;;;;;;4882472;28;94440;-33
2022/12/01 01:12:26;;;;;;;100.35;58.85;;;5.60;99.90;;;;;;4881240;28;95667;-35
2022/12/01 01:14:52;;;;;;;108.95;60.80;;;5.60;99.90;;;;;;4882342;28;95381;-31
2022/12/01 01:17:18;;;;;;;110.90;59.25;;;5.60;99.90;;;;;;4882039;28;93253;-33
2022/12/01 01:19:45;;;;;;;103.60;61.65;;;5.50;99.90;;;;;;4881128;28;93420;-33
2022/12/01 01:22:10;;;;;;;97.13;59.75;;;5.50;99.90;;;;;;4881623;28;95129;-31
2022/12/01 01:24:36;;;;;;;106.80;59.38;;;5.50;99.90;;;;;;4881999;28;94618;-32
2022/12/01 01:27:05;;;;;;;121.38;62.40;;;5.50;99.90;;;;;;4883059;28;94321;-32
2022/12/01 01:29:31;;;;;;;112.22;61.60;;;5.50;99.90;;;;;;4865160;28;92808;-33
2022/12/01 01:31:57;;;;;;;109.53;61.42;;;5.50;99.90;;;;;;4881330;28;94742;-34
2022/12/01 01:34:22;;;;;;;120.63;60.85;;;5.50;99.90;;;;;;4880742;28;94647;-33
2022/12/01 01:36:48;;;;;;;109.70;60.22;;;5.50;99.90;;;;;;4881102;28;94959;-32
2022/12/01 01:39:14;;;;;;;104.85;61.60;;;5.50;99.90;;;;;;4881269;28;93242;-31
2022/12/01 01:41:40;;;;;;;115.80;63.47;;;5.50;99.90;;;;;;4881617;28;94869;-32
2022/12/01 01:44:43;;;;;;;104.90;62.05;;;5.50;99.90;;;;;;4880860;28;95075;-34
2022/12/01 01:47:09;;;;;;;111.00;62.30;;;5.50;99.90;;;;;;4882035;28;92624;-31
2022/12/01 01:49:35;;;;;;;111.22;59.13;;;5.50;99.90;;;;;;4881235;28;93663;-31
2022/12/01 01:52:03;;;;;;;102.32;59.58;;;5.50;99.90;;;;;;4881055;28;94801;-34
2022/12/01 01:54:34;;;;;;;111.05;62.13;;;5.50;99.90;;;;;;4884955;28;94237;-32
2022/12/01 01:57:03;;;;;;;116.07;59.97;;;5.40;99.90;;;;;;4883388;28;93240;-33
2022/12/01 01:59:44;;;;;;;104.03;57.50;;;5.50;99.90;;;;;;4881441;28;93276;-30
2022/12/01 02:02:11;;;;;;;104.85;62.38;;;5.50;99.90;;;;;;4879984;28;96500;-33
2022/12/01 02:04:40;;;;;;;103.05;61.80;;;5.50;99.90;;;;;;4881075;28;95914;-32
2022/12/01 02:07:07;;;;;;;101.45;60.17;;;5.50;99.90;;;;;;4881223;28;94615;-34
2022/12/01 02:09:34;;;;;;;108.60;62.08;;;5.40;99.90;;;;;;4881010;28;94517;-32
2022/12/01 02:12:36;;;;;;;103.05;59.28;;;5.40;99.90;;;;;;4880988;28;96062;-32
2022/12/01 02:15:22;;;;;;;102.63;57.70;;;5.40;99.90;;;;;;4860186;28;94747;-34
2022/12/01 02:18:13;;;;;;;110.80;62.88;;;5.50;99.90;;;;;;4880996;28;92404;-31
2022/12/01 02:21:02;;;;;;;104.78;59.08;;;5.40;99.90;;;;;;4881191;28;92570;-31
2022/12/01 02:24:10;;;;;;;94.68;60.40;;;5.50;99.90;;;;;;4880538;28;94745;-32
2022/12/01 02:26:35;;;;;;;;;;;5.50;99.90;;;;;;4881394;28;94844;-31
2022/12/01 02:29:18;;;;;;;108.15;62.17;;;5.50;99.90;;;;;;4883285;28;93732;-32
2022/12/01 02:32:14;;;;;;;96.50;60.30;;;5.50;99.90;;;;;;4880567;28;92148;-31
2022/12/01 02:34:50;;;;;;;97.72;58.47;;;5.50;99.90;;;;;;4880778;28;94437;-36
2022/12/01 02:37:47;;;;;;;95.03;59.55;;;5.50;99.90;;;;;;4880351;28;94622;-34
2022/12/01 02:40:15;;;;;;;104.68;63.38;;;5.50;99.90;;;;;;4881121;28;92323;-33
2022/12/01 02:42:49;;;;;;;96.95;62.28;;;5.40;99.90;;;;;;4879797;28;93582;-31
2022/12/01 02:45:33;;;;;;;105.30;61.60;;;5.50;99.90;;;;;;4880854;28;94782;-32
2022/12/01 02:48:03;;;;;;;92.13;61.08;;;5.50;99.90;;;;;;4880663;28;94503;-31
2022/12/01 02:50:32;;;;;;;98.18;59.88;;;5.40;99.90;;;;;;4880907;28;94330;-34
2022/12/01 02:53:00;;;;;;;99.00;58.58;;;5.40;99.90;;;;;;4880192;28;93499;-33
2022/12/01 02:55:25;;;;;;;96.60;60.23;;;5.40;99.90;;;;;;4879877;28;95690;-34
2022/12/01 02:57:51;;;;;;;86.53;55.17;;;5.40;99.90;;;;;;4880503;28;95078;-32
2022/12/01 03:00:17;;;;;;;87.15;54.20;;;5.40;99.90;;;;;;4879922;28;92162;-32
2022/12/01 03:03:00;;;;;;;92.47;59.75;;;5.40;99.90;;;;;;4880805;28;94499;-32
2022/12/01 03:05:44;;;;;;;86.55;58.20;;;5.40;99.90;;;;;;4863027;28;94656;-33
2022/12/01 03:08:32;;;;;;;93.95;57.63;;;5.40;99.90;;;;;;4881058;28;94754;-36
2022/12/01 03:10:58;;;;;;;;;;;5.40;99.90;;;;;;4882141;28;92493;-34
2022/12/01 03:13:34;;;;;;;101.22;59.47;;;5.40;99.90;;;;;;4881839;28;92221;-33
2022/12/01 03:16:17;;;;;;;94.13;60.53;;;5.40;99.90;;;;;;4879861;28;94639;-34
2022/12/01 03:18:47;;;;;;;108.90;62.08;;;5.40;99.90;;;;;;4879466;28;94639;-34
2022/12/01 03:21:32;;;;;;;92.18;60.75;;;5.40;99.90;;;;;;4880350;28;95650;-33
2022/12/01 03:24:03;;;;;;;86.78;56.35;;;5.40;99.90;;;;;;4879817;28;93203;-33
2022/12/01 03:26:31;;;;;;;91.60;57.67;;;5.40;99.90;;;;;;4862620;28;94757;-32
2022/12/01 03:29:12;;;;;;;99.15;61.70;;;5.40;99.90;;;;;;4879539;28;94658;-32
2022/12/01 03:31:44;;;;;;;93.70;60.90;;;5.40;99.90;;;;;;4879932;28;94054;-32
2022/12/01 03:34:36;;;;;;;98.50;61.55;;;5.40;99.90;;;;;;4880317;28;93895;-31
2022/12/01 03:37:13;;;;;;;90.07;59.67;;;5.40;99.90;;;;;;4879711;28;94820;-34
2022/12/01 03:39:40;;;;;;;102.03;62.10;;;5.40;99.90;;;;;;4880058;28;95780;-32
2022/12/01 03:42:16;;;;;;;92.13;57.23;;;5.40;99.90;;;;;;4879989;28;93946;-32
2022/12/01 03:44:48;;;;;;;89.35;58.70;;;5.40;99.90;;;;;;4879811;28;93682;-33
2022/12/01 03:47:21;;;;;;;94.80;59.28;;;5.40;99.90;;;;;;4879077;28;95711;-34
2022/12/01 03:49:50;;;;;;;103.32;61.13;;;5.40;99.90;;;;;;4862666;28;95576;-34
2022/12/01 03:52:22;;;;;;;89.28;59.05;;;5.40;99.90;;;;;;4880341;28;92560;-30
2022/12/01 03:55:00;;;;;;;97.35;64.63;;;5.40;99.90;;;;;;4879175;28;92238;-33
2022/12/01 03:57:34;;;;;;;102.25;62.50;;;5.40;99.90;;;;;;4879702;28;94163;-33
2022/12/01 04:00:00;;;;;;;93.60;59.42;;;5.40;99.90;;;;;;4879317;28;96279;-32
2022/12/01 04:02:27;;;;;;;95.68;61.90;;;5.40;99.90;;;;;;4879147;28;93071;-32
2022/12/01 04:04:53;;;;;;;100.43;61.47;;;5.40;99.90;;;;;;4880211;28;93870;-32
2022/12/01 04:07:20;;;;;;;100.50;63.33;;;5.40;99.90;;;;;;4878914;28;94125;-33
2022/12/01 04:09:46;;;;;;;96.35;61.10;;;5.40;99.90;;;;;;4879130;28;94544;-35
2022/12/01 04:12:28;;;;;;;94.18;62.85;;;5.30;99.90;;;;;;4879216;28;94301;-31
2022/12/01 04:15:02;;;;;;;95.55;64.28;;;5.40;99.90;;;;;;4879248;28;93245;-33
2022/12/01 04:17:28;;;;;;;102.55;59.22;;;5.30;99.90;;;;;;4885048;28;97802;-33
2022/12/01 04:19:54;;;;;;;98.82;60.03;;;5.30;99.90;;;;;;4885959;28;94540;-32
2022/12/01 04:22:20;;;;;;;96.22;61.60;;;5.30;99.90;;;;;;4879339;28;92619;-32
2022/12/01 04:24:46;;;;;;;99.55;60.28;;;5.30;99.90;;;;;;4878621;28;94425;-33
2022/12/01 04:27:12;;;;;;;99.25;61.47;;;5.30;99.90;;;;;;4879179;28;94998;-34
2022/12/01 04:29:38;;;;;;;97.45;63.15;;;5.30;99.90;;;;;;4879603;28;95273;-32
2022/12/01 04:32:04;;;;;;;111.18;62.85;;;5.30;99.90;;;;;;4878984;28;94270;-32
2022/12/01 04:34:29;;;;;;;105.10;61.42;;;5.30;99.90;;;;;;4879283;28;94204;-34
2022/12/01 04:36:55;;;;;;;103.07;61.70;;;5.30;99.90;;;;;;4878643;28;96619;-32
2022/12/01 04:39:21;;;;;;;86.05;58.63;;;5.30;99.90;;;;;;4878989;28;96068;-31
2022/12/01 04:41:46;;;;;;;107.15;62.42;;;5.30;99.90;;;;;;4878914;28;93103;-33
2022/12/01 04:44:12;;;;;;;92.78;59.83;;;5.30;99.90;;;;;;4878934;28;94588;-33
2022/12/01 04:46:38;;;;;;;99.85;61.78;;;5.30;99.90;;;;;;4879176;28;94971;-34
2022/12/01 04:49:04;;;;;;;101.65;61.92;;;5.30;99.90;;;;;;4878476;28;95506;-31
2022/12/01 04:51:30;;;;;;;102.90;62.17;;;5.40;99.90;;;;;;4879105;28;93408;-34
2022/12/01 04:53:56;;;;;;;99.38;61.95;;;5.40;99.90;;;;;;4879536;28;93017;-33
2022/12/01 04:56:22;;;;;;;94.05;65.38;;;5.40;99.90;;;;;;4884774;28;94408;-34
2022/12/01 04:58:47;;;;;;;101.00;66.82;;;5.40;99.90;;;;;;4878830;28;93423;-32
2022/12/01 05:01:15;;;;;;;98.22;62.05;;;5.40;99.90;;;;;;4878783;28;93854;-30
2022/12/01 05:03:43;;;;;;;101.28;64.72;;;5.30;99.90;;;;;;4878187;28;93819;-34
2022/12/01 05:06:12;;;;;;;100.70;65.28;;;5.30;99.90;;;;;;4879277;28;94498;-31
2022/12/01 05:08:38;;;;;;;101.50;63.33;;;5.30;99.90;;;;;;4878680;28;95038;-33
2022/12/01 05:11:06;;;;;;;101.32;61.25;;;5.30;99.90;;;;;;4878696;28;94012;-34
2022/12/01 05:13:32;;;;;;;;;;;5.30;99.90;;;;;;4878450;28;92222;-34
2022/12/01 05:16:06;;;;;;;89.82;63.33;;;5.30;99.90;;;;;;4880898;28;95849;-32
2022/12/01 05:18:32;;;;;;;102.53;64.75;;;5.30;99.90;;;;;;4877739;28;94572;-32
2022/12/01 05:20:58;;;;;;;99.57;62.50;;;5.20;99.90;;;;;;4879001;28;94334;-32
2022/12/01 05:23:26;;;;;;;99.40;64.78;;;5.20;99.90;;;;;;4878791;28;92131;-32
2022/12/01 05:25:52;;;;;;;95.45;64.00;;;5.20;99.90;;;;;;4877588;28;95199;-33
2022/12/01 05:28:19;;;;;;;96.97;60.90;;;5.20;99.90;;;;;;4878216;28;95713;-32
2022/12/01 05:30:45;;;;;;;96.45;60.75;;;5.20;99.90;;;;;;4861380;28;94398;-31
2022/12/01 05:33:10;;;;;;;96.95;64.47;;;5.20;99.90;;;;;;4878557;28;93250;-34
2022/12/01 05:35:36;;;;;;;93.50;60.83;;;5.20;99.90;;;;;;4878144;28;94931;-33
2022/12/01 05:38:02;;;;;;;99.60;61.88;;;5.10;99.90;;;;;;4877873;28;94412;-33
2022/12/01 05:40:29;;;;;;;100.70;62.00;;;5.20;99.90;;;;;;4878251;28;93407;-32
2022/12/01 05:42:56;;;;;;;94.93;61.00;;;5.20;99.90;;;;;;4875439;28;93865;-34
2022/12/01 05:45:21;;;;;;;91.47;60.70;;;5.10;99.90;;;;;;4878686;28;94756;-31
2022/12/01 05:47:47;;;;;;;99.15;61.97;;;5.20;99.90;;;;;;4877581;28;94572;-32
2022/12/01 05:50:12;;;;;;;102.38;66.40;;;5.20;99.90;;;;;;4878225;28;94461;-31
2022/12/01 05:52:38;;;;;;;100.35;64.13;;;5.20;99.90;;;;;;4877579;28;92120;-32
2022/12/01 05:55:05;;;;;;;103.53;64.45;;;5.20;99.90;;;;;;4881622;28;94697;-33
2022/12/01 05:57:31;;;;;;;104.10;63.25;;;5.20;99.90;;;;;;4880672;28;94622;-31
2022/12/01 05:59:57;;;;;;;97.93;63.63;;;5.20;99.90;;;;;;4863575;28;94175;-30
2022/12/01 06:02:25;;;;;;;95.65;59.22;;;5.20;99.90;;;;;;4881305;28;92490;-34
2022/12/01 06:04:51;;;;;;;109.43;67.20;;;5.20;99.90;;;;;;4880807;28;94842;-33
2022/12/01 06:07:17;;;;;;;92.35;58.08;;;5.20;99.90;;;;;;4881265;28;94710;-31
2022/12/01 06:09:45;;;;;;;96.40;58.50;;;5.10;99.90;;;;;;4881841;28;93321;-32
2022/12/01 06:12:11;;;;;;;95.95;62.15;;;5.10;99.90;;;;;;4863360;28;93460;-33
2022/12/01 06:14:36;;;;;;;98.57;63.10;;;5.10;99.90;;;;;;4880150;28;95768;-31
2022/12/01 06:17:02;;;;;;;99.60;62.28;;;5.10;99.90;;;;;;4881024;28;95908;-32
2022/12/01 06:19:27;;;;;;;96.57;64.10;;;5.10;99.90;;;;;;4880522;28;93048;-30
2022/12/01 06:21:53;;;;;;;94.45;63.53;;;5.10;99.90;;;;;;4881895;28;94416;-34
2022/12/01 06:24:19;;;;;;;104.93;63.35;;;5.10;99.90;;;;;;4880495;28;94595;-30
2022/12/01 06:26:44;;;;;;;94.72;60.53;;;5.20;99.90;;;;;;4880903;28;94385;-32
2022/12/01 06:29:10;;;;;;;109.18;66.05;;;5.20;99.90;;;;;;4880772;28;93207;-32
2022/12/01 06:31:35;;;;;;;101.18;64.85;;;5.20;99.90;;;;;;4881000;28;91498;-33
2022/12/01 06:34:01;;;;;;;111.30;64.38;;;5.10;99.90;;;;;;4880745;28;94867;-33
2022/12/01 06:36:26;;;;;;;109.47;66.35;;;5.20;99.90;;;;;;4880235;28;94519;-32
2022/12/01 06:38:52;;;;;;;106.47;63.08;;;5.20;99.90;;;;;;4879977;28;94354;-31
2022/12/01 06:41:18;;;;;;;110.82;65.95;;;5.20;99.90;;;;;;4880428;28;93141;-31
2022/12/01 06:43:43;;;;;;;95.72;60.05;;;5.20;99.90;;;;;;4880682;28;94202;-32
2022/12/01 06:46:09;;;;;;;102.43;66.20;;;5.20;99.90;;;;;;4881037;28;96252;-31
2022/12/01 06:48:34;;;;;;;107.47;68.22;;;5.20;99.90;;;;;;4880402;28;94287;-32
2022/12/01 06:51:00;;;;;;;107.88;66.25;;;5.20;99.90;;;;;;4881334;28;93667;-34
2022/12/01 06:53:27;;;;;;;91.60;61.53;;;5.20;99.90;;;;;;4880119;28;94616;-33
2022/12/01 06:55:57;;;;;;;103.90;63.80;;;5.20;99.90;;;;;;4881125;28;94631;-31
2022/12/01 06:58:23;;;;;;;110.32;63.20;;;5.20;99.90;;;;;;4880557;28;94186;-37
2022/12/01 07:00:49;;;;;;;105.97;62.00;;;5.20;99.90;;;;;;4880481;28;94120;-32
2022/12/01 07:03:14;;;;;;;100.60;62.47;;;5.20;99.90;;;;;;4879270;28;96093;-32
2022/12/01 07:05:40;;;;;;;101.50;63.45;;;5.20;99.90;;;;;;4878762;28;95739;-31
2022/12/01 07:08:06;;;;;;;102.40;62.83;;;5.20;99.90;;;;;;4879979;28;94693;-32
2022/12/01 07:10:31;;;;;;;99.10;62.58;;;5.20;99.90;;;;;;4862640;28;92255;-33
2022/12/01 07:12:57;;;;;;;107.07;61.70;;;5.20;99.90;;;;;;4880610;28;95453;-31
2022/12/01 07:15:23;;;;;;;98.07;61.75;;;5.20;99.90;;;;;;4879311;28;94504;-32
2022/12/01 07:17:49;;;;;;;105.75;64.07;;;5.20;99.90;;;;;;4880763;28;93448;-33
2022/12/01 07:20:15;;;;;;;91.60;57.22;;;5.20;99.90;;;;;;4880473;28;93930;-32
2022/12/01 07:22:41;;;;;;;93.50;58.75;;;5.20;99.90;;;;;;4879316;28;94610;-34
2022/12/01 07:25:08;;;;;;;99.35;63.47;;;5.20;99.90;;;;;;4880895;28;94552;-31
2022/12/01 07:27:34;;;;;;;106.53;63.17;;;5.20;99.90;;;;;;4878928;28;95215;-34
2022/12/01 07:30:00;;;;;;;106.95;64.70;;;5.20;99.90;;;;;;4879752;28;94627;-32
2022/12/01 07:32:25;;;;;;;107.07;61.63;;;5.20;99.90;;;;;;4888407;28;94822;-32
2022/12/01 07:34:51;;;;;;;100.20;60.28;;;5.20;99.90;;;;;;4892773;28;94817;-34
2022/12/01 07:37:16;;;;;;;97.93;62.10;;;5.20;99.90;;;;;;4871629;28;93902;-32
2022/12/01 07:39:42;;;;;;;101.72;62.35;;;5.20;99.90;;;;;;4885736;28;94294;-32
2022/12/01 07:42:08;;;;;;;95.32;61.95;;;5.30;99.90;;;;;;4888599;28;95136;-32
2022/12/01 07:44:33;;;;;;;102.28;63.15;;;5.30;99.90;;;;;;4879711;28;94727;-32
2022/12/01 07:46:59;;;;;;;105.50;64.18;;;5.30;99.90;;;;;;4880626;28;92052;-34
2022/12/01 07:49:24;;;;;;;106.53;61.70;;;5.30;99.90;;;;;;4879882;28;94231;-33
2022/12/01 07:51:50;;;;;;;89.55;62.78;;;5.30;99.90;;;;;;4878561;28;95786;-34
2022/12/01 07:54:18;;;;;;;99.07;61.00;;;5.30;99.90;;;;;;4880038;28;95256;-32
2022/12/01 07:56:44;;;;;;;99.50;61.17;;;5.30;99.90;;;;;;4879568;28;93349;-33
2022/12/01 07:59:11;;;;;;;101.93;60.78;;;5.40;99.90;;;;;;4878910;28;93914;-35
2022/12/01 08:01:37;;;;;;;96.03;58.90;;;5.40;99.90;;;;;;4876643;28;94699;-34
2022/12/01 08:04:03;;;;;;;100.28;60.78;;;5.30;99.90;;;;;;4884827;28;95291;-34
2022/12/01 08:06:29;;;;;;;99.00;62.30;;;5.40;99.90;;;;;;4885714;28;94584;-33
2022/12/01 08:08:55;;;;;;;96.15;62.65;;;5.40;99.90;;;;;;4880668;28;91949;-31
2022/12/01 08:11:22;;;;;;;106.10;60.97;;;5.40;99.90;;;;;;4877486;28;94577;-31
2022/12/01 08:13:49;;;;;;;104.10;60.70;;;5.40;99.90;;;;;;4879672;28;96034;-32
2022/12/01 08:16:17;;;;;;;97.57;59.50;;;5.40;99.90;;;;;;4878642;28;94477;-34
2022/12/01 08:18:43;;;;;;;102.30;62.03;;;5.40;99.90;;;;;;4878635;28;94330;-31
2022/12/01 08:21:11;;;;;;;95.70;59.67;;;5.40;99.90;;;;;;4879287;28;94989;-32
2022/12/01 08:23:37;;;;;;;104.05;61.25;;;5.40;99.90;;;;;;4879221;28;94267;-32
2022/12/01 08:26:05;;;;;;;101.57;62.70;;;5.40;99.90;;;;;;4880060;28;92471;-31
2022/12/01 08:28:31;;;;;;;91.95;61.45;;;5.50;99.90;;;;;;4879224;28;92741;-33
2022/12/01 08:30:56;;;;;;;103.28;60.58;;;5.50;99.90;;;;;;4879701;28;94967;-32
2022/12/01 08:33:22;;;;;;;93.00;57.85;;;5.50;99.90;;;;;;4880155;28;94328;-32
2022/12/01 08:35:48;;;;;;;109.53;60.28;;;5.50;99.90;;;;;;4878334;28;92642;-32
2022/12/01 08:38:14;;;;;;;101.93;57.25;;;5.50;99.90;;;;;;4893748;28;93577;-32
2022/12/01 08:40:40;;;;;;;101.00;56.88;;;5.50;99.90;;;;;;4894275;28;95933;-34
2022/12/01 08:43:06;;;;;;;108.45;62.00;;;5.50;99.90;;;;;;4879443;28;95542;-33
2022/12/01 08:45:32;;;;;;;100.75;61.03;;;5.60;99.90;;;;;;4879569;28;93869;-31
2022/12/01 08:47:58;;;;;;;98.95;60.10;;;5.50;99.90;;;;;;4878816;28;93236;-32
2022/12/01 08:50:27;;;;;;;102.28;58.53;;;5.60;99.90;;;;;;4878738;28;94448;-33
2022/12/01 08:52:53;;;;;;;94.63;57.53;;;5.60;99.90;;;;;;4878579;28;94748;-32
2022/12/01 08:55:20;;;;;;;95.05;60.03;;;5.60;99.90;;;;;;4877915;28;94525;-34
2022/12/01 08:57:46;;;;;;;95.38;58.50;;;5.60;99.90;;;;;;4878624;28;91847;-32
2022/12/01 09:00:12;;;;;;;100.90;61.35;;;5.70;99.90;;;;;;4879226;28;94771;-31
2022/12/01 09:02:38;;;;;;;87.55;56.67;;;5.70;99.90;;;;;;4878282;28;95498;-31
2022/12/01 09:05:04;;;;;;;95.88;56.28;;;5.70;99.90;;;;;;4878759;28;93406;-34
2022/12/01 09:07:29;;;;;;;106.57;58.88;;;5.80;99.90;;;;;;4879256;28;94432;-33
2022/12/01 09:09:55;;;;;;;92.13;55.67;;;5.80;99.90;;;;;;4877942;28;95263;-31
2022/12/01 09:12:21;;;;;;;98.82;60.10;;;5.70;99.90;;;;;;4878505;28;94682;-31
2022/12/01 09:14:48;;;;;;;94.40;58.80;;;5.80;99.90;;;;;;4878044;28;94343;-34
2022/12/01 09:17:15;;;;;;;91.03;55.13;;;5.80;99.90;;;;;;4879242;28;94196;-32
2022/12/01 09:19:42;;;;;;;90.65;56.72;;;5.80;99.90;;;;;;4927399;23;94183;-33
2022/12/01 09:22:08;;;;;;;92.07;56.38;;;5.80;99.90;;;;;;4917288;28;96250;-34
2022/12/01 09:24:34;;;;;;;92.43;56.72;;;5.90;99.90;;;;;;4916339;28;94501;-33
2022/12/01 09:27:00;;;;;;;99.72;57.83;;;6.00;99.90;;;;;;4917672;28;94659;-32
2022/12/01 09:29:26;;;;;;;89.80;54.58;;;5.90;99.90;;;;;;4918796;28;95671;-33
2022/12/01 09:31:55;;;;;;;77.80;53.63;;;5.90;99.90;;;;;;4920388;28;96344;-32
2022/12/01 09:34:21;;;;;;;89.45;54.35;;;5.90;99.90;;;;;;4920905;28;93308;-33
2022/12/01 09:36:47;;;;;;;90.00;54.45;;;5.90;99.90;;;;;;4920369;28;94637;-33
2022/12/01 09:39:18;;;;;;;89.88;55.95;;;5.90;99.90;;;;;;4919713;28;93900;-33
2022/12/01 09:41:48;;;;;;;90.82;52.88;;;5.90;99.90;;;;;;4920341;28;94257;-31
2022/12/01 09:44:15;;;;;;;82.93;52.33;;;6.00;99.90;;;;;;4919927;28;92771;-34
2022/12/01 09:46:50;;;;;;;90.07;53.05;;;6.00;99.90;;;;;;4920395;28;94183;-34
2022/12/01 09:49:28;;;;;;;90.25;54.92;;;6.00;99.90;;;;;;4920337;28;94626;-31
2022/12/01 09:51:54;;;;;;;85.97;54.03;;;6.00;99.90;;;;;;4920056;28;95935;-33
2022/12/01 09:54:20;;;;;;;92.38;56.83;;;6.00;99.90;;;;;;4920329;28;95287;-34
2022/12/01 09:56:49;;;;;;;87.68;53.05;;;6.00;99.90;;;;;;4919897;28;93403;-32
2022/12/01 09:59:31;;;;;;;90.72;54.97;;;6.10;99.90;;;;;;4920428;28;94705;-32
2022/12/01 10:02:01;;;;;;;87.38;52.78;;;6.00;99.90;;;;;;4919579;28;94633;-31
2022/12/01 10:04:34;;;;;;;76.78;49.95;;;6.00;99.90;;;;;;4920000;28;92241;-30
2022/12/01 10:07:15;;;;;;;83.15;50.15;;;6.00;99.90;;;;;;4920123;28;92627;-34
2022/12/01 10:09:47;;;;;;;78.80;52.47;;;6.10;99.90;;;;;;4919513;28;94787;-31
2022/12/01 10:12:17;;;;;;;86.38;51.25;;;6.00;99.90;;;;;;4920373;28;94212;-34
2022/12/01 10:14:45;;;;;;;87.43;51.80;;;6.10;99.90;;;;;;4920338;28;92088;-34
2022/12/01 10:17:29;;;;;;;87.53;51.67;;;6.10;99.90;;;;;;4920667;28;94399;-31
2022/12/01 10:20:10;;;;;;;85.47;55.58;;;6.20;99.90;;;;;;4918437;28;96321;-33
2022/12/01 10:23:07;;;;;;;81.07;51.25;;;6.10;99.90;;;;;;4919029;28;93360;-32
2022/12/01 10:25:55;;;;;;;76.43;48.15;;;6.10;99.90;;;;;;4919001;28;94283;-31
2022/12/01 10:28:45;;;;;;;82.28;51.10;;;6.10;99.90;;;;;;4919543;28;93142;-33
2022/12/01 10:31:29;;;;;;;85.93;51.42;;;6.10;99.90;;;;;;4919592;28;94553;-32
2022/12/01 10:34:02;;;;;;;84.53;54.13;;;6.10;99.90;;;;;;4918501;28;95012;-32
2022/12/01 10:36:31;;;;;;;83.00;51.10;;;6.10;99.90;;;;;;4919311;28;93999;-32
2022/12/01 10:38:57;;;;;;;77.72;49.03;;;6.10;99.90;;;;;;4901950;28;92454;-33
2022/12/01 10:41:26;;;;;;;81.82;50.72;;;6.10;99.90;;;;;;4919143;28;95145;-33
2022/12/01 10:43:59;;;;;;;79.85;50.55;;;6.10;99.90;;;;;;4919191;28;94515;-34
2022/12/01 10:46:27;;;;;;;70.35;48.25;;;6.10;99.90;;;;;;4917932;28;93754;-33
2022/12/01 10:48:58;;;;;;;77.85;47.85;;;6.10;99.90;;;;;;4918565;28;92603;-32
2022/12/01 10:51:25;;;;;;;72.88;46.67;;;6.10;99.90;;;;;;4918516;28;95969;-33
2022/12/01 10:54:05;;;;;;;75.25;49.28;;;6.10;99.90;;;;;;4919247;28;94469;-32
2022/12/01 10:56:31;;;;;;;75.22;47.92;;;6.20;99.90;;;;;;4918833;28;94061;-35
2022/12/01 10:59:03;;;;;;;71.57;47.22;;;6.20;99.90;;;;;;4919127;28;92144;-33
2022/12/01 11:01:34;;;;;;;68.55;45.63;;;6.20;99.90;;;;;;4918448;28;94475;-30
2022/12/01 11:04:07;;;;;;;72.85;45.75;;;6.30;99.90;;;;;;4918698;28;94541;-34
2022/12/01 11:06:34;;;;;;;70.95;48.92;;;6.20;99.90;;;;;;4901452;28;93285;-33
2022/12/01 11:09:02;;;;;;;69.38;46.25;;;6.30;99.90;;;;;;4918594;28;93737;-32
2022/12/01 11:11:40;;;;;;;;;;;6.30;99.90;;;;;;4918180;28;95288;-35
2022/12/01 11:14:21;;;;;;;80.35;49.58;;;6.30;99.90;;;;;;4921442;28;94993;-35
2022/12/01 11:16:49;;;;;;;77.35;48.40;;;6.20;99.90;;;;;;4918709;28;93090;-32
2022/12/01 11:19:33;;;;;;;70.83;46.97;;;6.20;99.90;;;;;;4918488;28;93272;-32
2022/12/01 11:22:16;;;;;;;70.90;44.72;;;6.20;99.90;;;;;;4918282;28;94597;-34
2022/12/01 11:24:54;;;;;;;71.13;46.67;;;6.30;99.90;;;;;;4918334;28;94442;-32
2022/12/01 11:27:46;;;;;;;72.90;45.73;;;6.20;99.90;;;;;;4918780;28;93504;-31
2022/12/01 11:30:26;;;;;;;73.70;45.33;;;6.20;99.90;;;;;;4912813;28;92707;-34
2022/12/01 11:32:59;;;;;;;68.57;45.05;;;6.30;99.90;;;;;;4916819;28;94585;-36
2022/12/01 11:35:29;;;;;;;72.93;49.40;;;6.30;99.90;;;;;;4906794;28;94589;-32
2022/12/01 11:37:59;;;;;;;76.47;45.92;;;6.40;99.90;;;;;;4899094;28;94115;-33
2022/12/01 11:40:28;;;;;;;72.03;47.25;;;6.30;99.90;;;;;;4898719;28;93951;-32
2022/12/01 11:43:05;;;;;;;70.65;45.40;;;6.30;99.90;;;;;;4913889;28;94630;-33
2022/12/01 11:45:38;;;;;;;75.97;48.72;;;6.30;99.90;;;;;;4916205;28;96012;-33
2022/12/01 11:48:16;;;;;;;63.38;41.33;;;6.40;99.90;;;;;;4900762;28;94663;-35
2022/12/01 11:50:43;;;;;;;71.43;45.08;;;6.30;99.90;;;;;;4912334;28;94494;-32
2022/12/01 11:53:35;;;;;;;69.85;48.53;;;6.40;99.90;;;;;;4910698;28;96203;-32
2022/12/01 11:56:16;;;;;;;70.85;46.85;;;6.40;99.90;;;;;;4913126;28;94540;-34
2022/12/01 11:58:47;;;;;;;63.22;43.05;;;6.30;99.90;;;;;;4906172;28;94737;-34
2022/12/01 12:01:45;;;;;;;67.47;45.55;;;6.30;99.90;;;;;;4912341;28;93379;-35
2022/12/01 12:04:16;;;;;;;70.38;44.60;;;6.30;99.90;;;;;;4911468;28;96186;-31
2022/12/01 12:06:45;;;;;;;63.72;46.70;;;6.30;99.90;;;;;;4910009;28;95503;-33
2022/12/01 12:09:26;;;;;;;63.28;43.25;;;6.30;99.90;;;;;;4911007;28;94318;-32
2022/12/01 12:12:04;;;;;;;67.47;42.83;;;6.30;99.90;;;;;;4910668;28;94529;-32
2022/12/01 12:14:41;;;;;;;68.72;43.72;;;6.30;99.90;;;;;;4912003;28;94245;-35
2022/12/01 12:17:48;;;;;;;71.05;46.10;;;6.40;99.90;;;;;;4908867;28;94466;-32
2022/12/01 12:20:32;;;;;;;70.53;46.28;;;6.30;99.90;;;;;;4907656;28;93713;-33
2022/12/01 12:23:00;;;;;;;69.30;45.90;;;6.30;99.90;;;;;;4913112;28;93590;-31
2022/12/01 12:25:44;;;;;;;71.28;42.67;;;6.30;99.90;;;;;;4910123;28;94911;-35
2022/12/01 12:28:10;;;;;;;76.55;46.90;;;6.30;99.90;;;;;;4912021;28;94565;-34
2022/12/01 12:31:23;;;;;;;70.85;43.63;;;6.30;99.90;;;;;;4909928;28;94409;-31
2022/12/01 12:33:51;;;;;;;56.60;40.13;;;6.20;99.90;;;;;;4908634;28;93796;-31
2022/12/01 12:36:37;;;;;;;63.25;42.72;;;6.30;99.90;;;;;;4910125;28;94878;-32
2022/12/01 12:39:23;;;;;;;64.97;43.10;;;6.30;99.90;;;;;;4910084;28;94855;-32
2022/12/01 12:41:52;;;;;;;66.63;44.15;;;6.30;99.90;;;;;;4912750;28;93544;-31
2022/12/01 12:44:37;;;;;;;69.03;45.85;;;6.30;99.90;;;;;;4915573;28;93033;-31
2022/12/01 12:47:16;;;;;;;74.80;45.30;;;6.30;99.90;;;;;;4915546;28;94447;-33
2022/12/01 12:50:04;;;;;;;65.88;43.83;;;6.30;99.90;;;;;;4910635;28;95296;-31
2022/12/01 12:52:33;;;;;;;;;;;6.30;99.90;;;;;;4908031;28;92961;-33